クアラルンプール の空港の天気 - METARとTAF

クアラルンプール国際空港 ( WMKK / KUL ) - マレーシア スランゴール州セパン
飛行場実況気象(Metar)
観測時間12/18 16:30 MYT (12/18 08:30 UTC)
風向・風速南南西 2m/s
視程10km以上
天気現象
少しの雲 雲底高度 520m
全天の4割程度の雲 雲底高度 910m
全天の8割程度の雲 雲底高度 8530m
気温29℃
湿度74%
気圧1009hPa
METARWMKK 180830Z 21004KT 160V250 9999 FEW017CB SCT030 BKN280 29/24 Q1009 NOSIG
過去の天気等 Google飛行場航空写真 Wunderground天気予報

過去48時間のMETAR

飛行場予報(TAF)
発表時間: 12/18 13:00 MYT (12/18 05:00 UTC)
予報対象時間: 18日14時 MYT ~ 19日20時 MYT
風向・風速東北東 5m/s
視程10km以上
少しの積乱雲 雲底高度 520m
全天の4割程度の雲 雲底高度 4,270m
全天の8割程度の雲 雲底高度 8,530m
18日15時 MYT ~ 18日19時 MYT に 確率 30% で一時的に
視程3,000m
天気現象雷雨
少しの積乱雲 雲底高度 460m
全天の4割程度の雲 雲底高度 550m
TAF WMKK 180500Z 1806/1912 07010KT 9999 FEW017CB SCT140 BKN280
PROB30 TEMPO 1807/1811 3000 TSRA FEW015CB SCT018